createdAt,value
2023-04-20T00:00:39.790Z,456.00
2023-04-20T00:01:39.720Z,453.00
2023-04-20T00:02:40.008Z,450.00
2023-04-20T00:03:39.835Z,452.00
2023-04-20T00:04:40.508Z,452.00
2023-04-20T00:05:40.363Z,454.00
2023-04-20T00:06:40.293Z,453.00
2023-04-20T00:07:39.742Z,455.00
2023-04-20T00:08:39.651Z,455.00
2023-04-20T00:09:39.613Z,456.00
2023-04-20T00:10:39.681Z,458.00
2023-04-20T00:11:39.576Z,456.00
2023-04-20T00:12:39.580Z,457.00
2023-04-20T00:13:39.541Z,457.00
2023-04-20T00:14:39.607Z,456.00
2023-04-20T00:15:39.540Z,458.00
2023-04-20T00:16:39.647Z,455.00
2023-04-20T00:17:39.587Z,457.00
2023-04-20T00:18:39.524Z,456.00
2023-04-20T00:19:39.476Z,458.00
2023-04-20T00:20:39.535Z,457.00
2023-04-20T00:21:39.488Z,456.00
2023-04-20T00:22:39.444Z,452.00
2023-04-20T00:23:39.458Z,451.00
2023-04-20T00:24:39.459Z,449.00
2023-04-20T00:25:39.408Z,448.00
2023-04-20T00:26:39.490Z,451.00
2023-04-20T00:27:39.389Z,455.00
2023-04-20T00:28:39.419Z,454.00
2023-04-20T00:29:39.331Z,454.00
2023-04-20T00:30:39.433Z,455.00
2023-04-20T00:31:39.303Z,453.00
2023-04-20T00:32:39.360Z,453.00
2023-04-20T00:33:39.286Z,453.00
2023-04-20T00:34:39.333Z,451.00
2023-04-20T00:35:39.260Z,452.00
2023-04-20T00:36:39.346Z,451.00
2023-04-20T00:37:39.230Z,454.00
2023-04-20T00:38:39.256Z,457.00
2023-04-20T00:39:39.249Z,458.00
2023-04-20T00:40:39.265Z,456.00
2023-04-20T00:41:39.176Z,459.00
2023-04-20T00:42:39.198Z,456.00
2023-04-20T00:43:39.180Z,457.00
2023-04-20T00:44:39.197Z,457.00
2023-04-20T00:45:39.127Z,456.00
2023-04-20T00:46:39.277Z,453.00
2023-04-20T00:47:39.106Z,452.00
2023-04-20T00:48:39.117Z,450.00
2023-04-20T00:49:39.079Z,450.00
2023-04-20T00:50:39.118Z,451.00
2023-04-20T00:51:39.055Z,452.00
2023-04-20T00:52:39.065Z,455.00
2023-04-20T00:53:39.019Z,454.00
2023-04-20T00:54:39.068Z,452.00
2023-04-20T00:55:38.983Z,455.00
2023-04-20T00:56:39.098Z,458.00
2023-04-20T00:57:38.973Z,455.00
2023-04-20T00:58:38.988Z,447.00
2023-04-20T00:59:38.926Z,455.00
2023-04-20T01:00:39.006Z,457.00
2023-04-20T01:01:38.959Z,455.00
2023-04-20T01:02:39.048Z,455.00
2023-04-20T01:03:39.059Z,454.00
2023-04-20T01:04:38.959Z,454.00
2023-04-20T01:05:38.877Z,453.00
2023-04-20T01:06:38.949Z,454.00
2023-04-20T01:07:38.869Z,453.00
2023-04-20T01:08:38.864Z,452.00
2023-04-20T01:09:38.825Z,452.00
2023-04-20T01:10:38.890Z,452.00
2023-04-20T01:11:38.779Z,452.00
2023-04-20T01:12:38.794Z,453.00
2023-04-20T01:13:38.744Z,454.00
2023-04-20T01:14:38.831Z,454.00
2023-04-20T01:15:38.779Z,454.00
2023-04-20T01:16:38.825Z,456.00
2023-04-20T01:17:38.736Z,454.00
2023-04-20T01:18:38.733Z,454.00
2023-04-20T01:19:38.669Z,454.00
2023-04-20T01:20:38.736Z,454.00
2023-04-20T01:21:38.687Z,451.00
2023-04-20T01:22:38.660Z,449.00
2023-04-20T01:23:38.614Z,448.00
2023-04-20T01:24:59.706Z,449.00
2023-04-20T01:25:38.610Z,453.00
2023-04-20T01:26:38.682Z,452.00
2023-04-20T01:27:38.571Z,450.00
2023-04-20T01:28:38.612Z,452.00
2023-04-20T01:29:38.544Z,450.00
2023-04-20T01:30:38.612Z,450.00
2023-04-20T01:31:38.567Z,450.00
2023-04-20T01:32:38.569Z,449.00
2023-04-20T01:33:38.492Z,448.00
2023-04-20T01:34:38.562Z,450.00
2023-04-20T01:35:38.450Z,452.00
2023-04-20T01:36:38.560Z,453.00
2023-04-20T01:37:38.467Z,452.00
2023-04-20T01:38:38.486Z,451.00
2023-04-20T01:39:38.529Z,450.00
2023-04-20T01:40:38.491Z,450.00
2023-04-20T01:41:38.366Z,449.00
2023-04-20T01:42:38.492Z,449.00
2023-04-20T01:43:38.360Z,452.00
2023-04-20T01:44:38.442Z,450.00
2023-04-20T01:45:38.349Z,448.00
2023-04-20T01:46:38.482Z,448.00
2023-04-20T01:47:38.332Z,451.00
2023-04-20T01:48:38.340Z,453.00
2023-04-20T01:49:38.273Z,451.00
2023-04-20T01:50:38.350Z,447.00
2023-04-20T01:51:38.269Z,449.00
2023-04-20T01:52:38.281Z,449.00
2023-04-20T01:53:38.225Z,449.00
2023-04-20T01:54:38.286Z,446.00
2023-04-20T01:55:38.190Z,447.00
2023-04-20T01:56:38.295Z,447.00
2023-04-20T01:57:38.201Z,452.00
2023-04-20T01:58:38.244Z,453.00
2023-04-20T01:59:38.154Z,453.00
2023-04-20T02:00:38.246Z,456.00
2023-04-20T02:01:38.119Z,453.00
2023-04-20T02:02:38.239Z,454.00
2023-04-20T02:03:38.429Z,453.00
2023-04-20T02:04:38.173Z,452.00
2023-04-20T02:05:38.075Z,453.00
2023-04-20T02:06:38.173Z,453.00
2023-04-20T02:07:38.038Z,455.00
2023-04-20T02:08:38.083Z,451.00
2023-04-20T02:09:38.062Z,455.00
2023-04-20T02:10:59.074Z,454.00
2023-04-20T02:11:37.983Z,456.00
2023-04-20T02:12:37.998Z,457.00
2023-04-20T02:13:37.983Z,457.00
2023-04-20T02:14:38.012Z,460.00
2023-04-20T02:15:37.950Z,461.00
2023-04-20T02:16:38.058Z,461.00
2023-04-20T02:17:38.028Z,460.00
2023-04-20T02:18:37.939Z,460.00
2023-04-20T02:19:58.887Z,460.00
2023-04-20T02:20:37.892Z,459.00
2023-04-20T02:21:37.966Z,461.00
2023-04-20T02:22:37.851Z,464.00
2023-04-20T02:23:37.892Z,461.00
2023-04-20T02:24:37.807Z,461.00
2023-04-20T02:25:37.881Z,461.00
2023-04-20T02:26:37.780Z,460.00
2023-04-20T02:27:37.851Z,461.00
2023-04-20T02:28:37.764Z,463.00
2023-04-20T02:29:37.809Z,463.00
2023-04-20T02:30:37.734Z,461.00
2023-04-20T02:31:37.844Z,458.00
2023-04-20T02:32:37.792Z,457.00
2023-04-20T02:33:39.740Z,455.00
2023-04-20T02:34:37.694Z,455.00
2023-04-20T02:35:37.754Z,456.00
2023-04-20T02:36:37.667Z,453.00
2023-04-20T02:37:37.695Z,450.00
2023-04-20T02:38:37.624Z,450.00
2023-04-20T02:39:37.736Z,451.00
2023-04-20T02:40:37.610Z,454.00
2023-04-20T02:41:37.689Z,451.00
2023-04-20T02:42:37.585Z,452.00
2023-04-20T02:43:37.642Z,452.00
2023-04-20T02:44:37.555Z,449.00
2023-04-20T02:45:37.686Z,451.00
2023-04-20T02:46:37.553Z,452.00
2023-04-20T02:47:37.580Z,451.00
2023-04-20T02:48:37.514Z,451.00
2023-04-20T02:49:37.557Z,455.00
2023-04-20T02:50:37.473Z,455.00
2023-04-20T02:51:37.552Z,453.00
2023-04-20T02:52:37.447Z,452.00
2023-04-20T02:53:37.480Z,453.00
2023-04-20T02:54:37.414Z,453.00
2023-04-20T02:55:37.491Z,451.00
2023-04-20T02:56:37.396Z,450.00
2023-04-20T02:57:37.466Z,451.00
2023-04-20T02:58:37.375Z,452.00
2023-04-20T02:59:37.421Z,453.00
2023-04-20T03:00:37.417Z,452.00
2023-04-20T03:01:37.532Z,454.00
2023-04-20T03:02:37.473Z,455.00
2023-04-20T03:03:37.652Z,455.00
2023-04-20T03:04:37.339Z,455.00
2023-04-20T03:05:37.364Z,455.00
2023-04-20T03:06:38.825Z,454.00
2023-04-20T03:07:37.321Z,457.00
2023-04-20T03:08:37.238Z,454.00
2023-04-20T03:09:37.352Z,453.00
2023-04-20T03:10:37.256Z,450.00
2023-04-20T03:11:37.307Z,452.00
2023-04-20T03:12:37.213Z,454.00
2023-04-20T03:13:37.225Z,456.00
2023-04-20T03:14:37.165Z,458.00
2023-04-20T03:15:37.183Z,460.00
2023-04-20T03:16:37.198Z,463.00
2023-04-20T03:17:37.188Z,464.00
2023-04-20T03:18:37.138Z,467.00
2023-04-20T03:19:38.174Z,470.00
2023-04-20T03:20:37.091Z,470.00
2023-04-20T03:21:37.121Z,469.00
2023-04-20T03:22:37.074Z,466.00
2023-04-20T03:23:37.079Z,470.00
2023-04-20T03:24:37.028Z,464.00
2023-04-20T03:25:37.105Z,466.00
2023-04-20T03:26:37.003Z,466.00
2023-04-20T03:27:37.082Z,465.00
2023-04-20T03:28:36.975Z,467.00
2023-04-20T03:29:37.022Z,466.00
2023-04-20T03:30:36.950Z,466.00
2023-04-20T03:31:37.112Z,464.00
2023-04-20T03:32:36.947Z,460.00
2023-04-20T03:33:37.020Z,462.00
2023-04-20T03:34:36.948Z,462.00
2023-04-20T03:35:36.966Z,463.00
2023-04-20T03:36:36.891Z,462.00
2023-04-20T03:37:36.878Z,461.00
2023-04-20T03:38:36.838Z,458.00
2023-04-20T03:39:36.950Z,454.00
2023-04-20T03:40:36.822Z,455.00
2023-04-20T03:41:36.950Z,455.00
2023-04-20T03:42:36.791Z,458.00
2023-04-20T03:43:36.822Z,460.00
2023-04-20T03:44:36.772Z,462.00
2023-04-20T03:45:36.920Z,460.00
2023-04-20T03:46:36.770Z,460.00
2023-04-20T03:47:36.813Z,457.00
2023-04-20T03:48:36.730Z,455.00
2023-04-20T03:49:36.748Z,460.00
2023-04-20T03:50:36.682Z,457.00
2023-04-20T03:51:36.725Z,458.00
2023-04-20T03:52:36.654Z,455.00
2023-04-20T03:53:39.339Z,453.00
2023-04-20T03:54:36.660Z,453.00
2023-04-20T03:55:36.694Z,451.00
2023-04-20T03:56:36.594Z,454.00
2023-04-20T03:57:36.686Z,456.00
2023-04-20T03:58:36.601Z,456.00
2023-04-20T03:59:36.625Z,452.00
2023-04-20T04:00:36.575Z,451.00
2023-04-20T04:01:36.651Z,450.00
2023-04-20T04:02:38.277Z,454.00
2023-04-20T04:03:36.787Z,453.00
2023-04-20T04:04:36.554Z,455.00
2023-04-20T04:05:36.563Z,457.00
2023-04-20T04:06:36.475Z,453.00
2023-04-20T04:07:36.474Z,451.00
2023-04-20T04:08:36.444Z,450.00
2023-04-20T04:09:36.555Z,451.00
2023-04-20T04:10:36.428Z,450.00
2023-04-20T04:11:36.514Z,447.00
2023-04-20T04:12:36.411Z,450.00
2023-04-20T04:13:36.430Z,447.00
2023-04-20T04:14:36.414Z,448.00
2023-04-20T04:15:36.482Z,448.00
2023-04-20T04:16:36.429Z,449.00
2023-04-20T04:17:36.376Z,449.00
2023-04-20T04:18:36.315Z,448.00
2023-04-20T04:19:36.355Z,448.00
2023-04-20T04:20:36.292Z,450.00
2023-04-20T04:21:36.443Z,452.00
2023-04-20T04:22:36.286Z,449.00
2023-04-20T04:23:36.294Z,446.00
2023-04-20T04:24:36.308Z,451.00
2023-04-20T04:25:36.308Z,449.00
2023-04-20T04:26:36.267Z,446.00
2023-04-20T04:27:36.267Z,445.00
2023-04-20T04:28:36.185Z,446.00
2023-04-20T04:29:36.246Z,449.00
2023-04-20T04:30:36.176Z,451.00
2023-04-20T04:31:36.299Z,451.00
2023-04-20T04:32:36.181Z,449.00
2023-04-20T04:33:36.434Z,447.00
2023-04-20T04:34:36.431Z,447.00
2023-04-20T04:35:36.399Z,447.00
2023-04-20T04:36:36.210Z,448.00
2023-04-20T04:37:36.323Z,449.00
2023-04-20T04:38:36.235Z,446.00
2023-04-20T04:39:37.574Z,447.00
2023-04-20T04:40:36.206Z,444.00
2023-04-20T04:41:36.342Z,445.00
2023-04-20T04:42:36.329Z,446.00
2023-04-20T04:43:36.075Z,446.00
2023-04-20T04:44:36.114Z,444.00
2023-04-20T04:45:36.419Z,442.00
2023-04-20T04:46:36.078Z,440.00
2023-04-20T04:47:36.418Z,444.00
2023-04-20T04:48:36.056Z,444.00
2023-04-20T04:49:36.694Z,445.00
2023-04-20T04:54:11.964Z,502.00
2023-04-20T04:55:11.392Z,460.00
2023-04-20T04:56:11.349Z,453.00
2023-04-20T04:57:12.314Z,454.00
2023-04-20T04:58:11.340Z,451.00
2023-04-20T04:59:11.294Z,452.00
2023-04-20T05:00:12.215Z,449.00
2023-04-20T05:01:11.247Z,449.00
2023-04-20T05:02:11.431Z,451.00
2023-04-20T05:03:11.091Z,447.00
2023-04-20T05:04:11.219Z,447.00
2023-04-20T05:05:11.102Z,438.00
2023-04-20T05:06:12.231Z,444.00
2023-04-20T05:07:11.041Z,447.00
2023-04-20T05:08:11.256Z,446.00
2023-04-20T05:09:10.961Z,450.00
2023-04-20T05:10:11.443Z,453.00
2023-04-20T05:11:11.014Z,450.00
2023-04-20T05:12:11.043Z,448.00
2023-04-20T05:13:10.779Z,448.00
2023-04-20T05:14:10.907Z,451.00
2023-04-20T05:15:10.730Z,451.00
2023-04-20T05:16:10.889Z,450.00
2023-04-20T05:17:10.718Z,451.00
2023-04-20T05:18:10.868Z,451.00
2023-04-20T05:19:10.713Z,451.00
2023-04-20T05:20:10.821Z,450.00
2023-04-20T05:21:11.014Z,450.00
2023-04-20T05:22:10.677Z,451.00
2023-04-20T05:23:10.655Z,449.00
2023-04-20T05:24:10.687Z,450.00
2023-04-20T05:25:13.292Z,449.00
2023-04-20T05:26:10.753Z,449.00
2023-04-20T05:27:11.147Z,449.00
2023-04-20T05:28:10.625Z,451.00
2023-04-20T05:29:10.548Z,451.00
2023-04-20T05:30:20.184Z,453.00
2023-04-20T05:31:11.543Z,453.00
2023-04-20T05:32:10.633Z,452.00
2023-04-20T05:33:10.551Z,451.00
2023-04-20T05:34:10.554Z,449.00
2023-04-20T05:35:10.482Z,449.00
2023-04-20T05:36:10.587Z,451.00
2023-04-20T05:37:10.473Z,450.00
2023-04-20T05:38:10.501Z,450.00
2023-04-20T05:39:10.422Z,449.00
2023-04-20T05:40:10.505Z,449.00
2023-04-20T05:41:10.412Z,448.00
2023-04-20T05:42:10.457Z,444.00
2023-04-20T05:43:10.401Z,446.00
2023-04-20T05:44:10.445Z,446.00
2023-04-20T05:45:10.361Z,446.00
2023-04-20T05:46:10.463Z,449.00
2023-04-20T05:47:10.332Z,449.00
2023-04-20T05:48:10.512Z,448.00
2023-04-20T05:49:10.336Z,446.00
2023-04-20T05:50:10.468Z,445.00
2023-04-20T05:51:10.329Z,447.00
2023-04-20T05:52:10.287Z,449.00
2023-04-20T05:53:10.236Z,449.00
2023-04-20T05:54:10.350Z,452.00
2023-04-20T05:55:10.255Z,451.00
2023-04-20T05:56:10.316Z,449.00
2023-04-20T05:57:10.195Z,449.00
2023-04-20T05:58:10.215Z,448.00
2023-04-20T05:59:10.189Z,449.00
2023-04-20T06:00:10.268Z,449.00
2023-04-20T06:01:10.175Z,449.00
2023-04-20T06:02:10.237Z,448.00
2023-04-20T06:03:10.501Z,441.00
2023-04-20T06:04:10.441Z,436.00
2023-04-20T06:05:10.566Z,440.00
2023-04-20T06:06:10.218Z,440.00
2023-04-20T06:07:10.733Z,440.00
2023-04-20T06:08:10.253Z,443.00
2023-04-20T06:09:10.085Z,445.00
2023-04-20T06:10:10.124Z,443.00
2023-04-20T06:11:09.993Z,445.00
2023-04-20T06:12:10.254Z,443.00
2023-04-20T06:13:10.033Z,440.00
2023-04-20T06:14:10.076Z,440.00
2023-04-20T06:15:10.109Z,442.00
2023-04-20T06:16:10.158Z,443.00
2023-04-20T06:17:09.916Z,443.00
2023-04-20T06:18:10.009Z,443.00
2023-04-20T06:19:09.919Z,446.00
2023-04-20T06:20:09.967Z,443.00
2023-04-20T06:21:09.869Z,442.00
2023-04-20T06:22:10.235Z,447.00
2023-04-20T06:23:09.849Z,446.00
2023-04-20T06:24:09.951Z,442.00
2023-04-20T06:25:09.822Z,442.00
2023-04-20T06:26:09.825Z,442.00
2023-04-20T06:27:09.792Z,441.00
2023-04-20T06:28:09.839Z,442.00
2023-04-20T06:29:09.755Z,442.00
2023-04-20T06:30:10.017Z,443.00
2023-04-20T06:31:09.974Z,441.00
2023-04-20T06:32:09.786Z,442.00
2023-04-20T06:33:12.287Z,438.00
2023-04-20T06:34:09.771Z,441.00
2023-04-20T06:35:09.674Z,442.00
2023-04-20T06:36:09.794Z,439.00
2023-04-20T06:37:09.692Z,440.00
2023-04-20T06:38:09.810Z,442.00
2023-04-20T06:39:09.617Z,440.00
2023-04-20T06:40:09.752Z,440.00
2023-04-20T06:41:09.594Z,442.00
2023-04-20T06:42:09.620Z,445.00
2023-04-20T06:43:09.666Z,447.00
2023-04-20T06:44:09.640Z,444.00
2023-04-20T06:45:09.543Z,443.00
2023-04-20T06:46:09.556Z,446.00
2023-04-20T06:47:09.648Z,443.00
2023-04-20T06:48:20.310Z,444.00
2023-04-20T06:49:10.552Z,444.00
2023-04-20T06:50:10.177Z,445.00
2023-04-20T06:51:09.483Z,443.00
2023-04-20T06:52:09.452Z,441.00
2023-04-20T06:53:09.499Z,442.00
2023-04-20T06:54:09.421Z,439.00
2023-04-20T06:55:09.456Z,443.00
2023-04-20T06:56:09.404Z,438.00
2023-04-20T06:57:09.426Z,439.00
2023-04-20T06:58:09.389Z,441.00
2023-04-20T06:59:09.447Z,441.00
2023-04-20T07:00:09.549Z,441.00
2023-04-20T07:01:09.608Z,441.00
2023-04-20T07:02:09.508Z,439.00
2023-04-20T07:03:09.655Z,443.00
2023-04-20T07:04:09.389Z,443.00
2023-04-20T07:05:09.377Z,442.00
2023-04-20T07:06:09.330Z,443.00
2023-04-20T07:07:09.514Z,442.00
2023-04-20T07:08:09.228Z,439.00
2023-04-20T07:09:09.419Z,443.00
2023-04-20T07:10:09.429Z,439.00
2023-04-20T07:11:09.233Z,442.00
2023-04-20T07:12:09.176Z,442.00
2023-04-20T07:13:09.321Z,442.00
2023-04-20T07:14:09.159Z,441.00
2023-04-20T07:15:10.182Z,440.00
2023-04-20T07:16:09.183Z,439.00
2023-04-20T07:17:10.366Z,438.00
2023-04-20T07:18:09.142Z,440.00
2023-04-20T07:19:09.129Z,442.00
2023-04-20T07:20:09.149Z,440.00
2023-04-20T07:21:09.079Z,441.00
2023-04-20T07:22:09.080Z,440.00
2023-04-20T07:23:09.122Z,440.00
2023-04-20T07:24:09.014Z,440.00
2023-04-20T07:25:09.108Z,447.00
2023-04-20T07:26:09.001Z,442.00
2023-04-20T07:27:09.028Z,443.00
2023-04-20T07:28:08.952Z,440.00
2023-04-20T07:29:09.045Z,445.00
2023-04-20T07:30:09.089Z,444.00
2023-04-20T07:31:13.211Z,443.00
2023-04-20T07:32:08.997Z,441.00
2023-04-20T07:33:08.995Z,442.00
2023-04-20T07:34:08.885Z,445.00
2023-04-20T07:35:08.877Z,442.00
2023-04-20T07:36:08.875Z,438.00
2023-04-20T07:37:08.980Z,437.00
2023-04-20T07:38:08.853Z,437.00
2023-04-20T07:39:08.911Z,440.00
2023-04-20T07:40:08.815Z,438.00
2023-04-20T07:41:08.822Z,444.00
2023-04-20T07:42:08.787Z,446.00
2023-04-20T07:43:08.920Z,443.00
2023-04-20T07:44:08.745Z,441.00
2023-04-20T07:45:08.767Z,447.00
2023-04-20T07:46:08.786Z,443.00
2023-04-20T07:47:08.769Z,438.00
2023-04-20T07:48:08.774Z,437.00
2023-04-20T07:49:08.734Z,433.00
2023-04-20T07:50:08.691Z,437.00
2023-04-20T07:51:08.699Z,436.00
2023-04-20T07:52:16.341Z,437.00
2023-04-20T07:53:09.629Z,439.00
2023-04-20T07:54:08.714Z,441.00
2023-04-20T07:55:08.628Z,441.00
2023-04-20T07:56:08.632Z,440.00
2023-04-20T07:57:08.592Z,438.00
2023-04-20T07:58:08.753Z,437.00
2023-04-20T07:59:08.599Z,440.00
2023-04-20T08:00:08.548Z,437.00
2023-04-20T08:01:08.635Z,440.00
2023-04-20T08:02:08.797Z,440.00
2023-04-20T08:03:08.874Z,439.00
2023-04-20T08:04:08.738Z,441.00
2023-04-20T08:05:08.813Z,444.00
2023-04-20T08:06:08.512Z,444.00
2023-04-20T08:07:08.484Z,444.00
2023-04-20T08:08:08.528Z,444.00
2023-04-20T08:09:08.417Z,449.00
2023-04-20T08:10:08.565Z,446.00
2023-04-20T08:11:08.401Z,441.00
2023-04-20T08:12:08.443Z,445.00
2023-04-20T08:13:08.485Z,443.00
2023-04-20T08:14:08.469Z,438.00
2023-04-20T08:15:08.369Z,438.00
2023-04-20T08:16:29.492Z,443.00
2023-04-20T08:17:08.318Z,447.00
2023-04-20T08:18:08.399Z,444.00
2023-04-20T08:19:08.322Z,440.00
2023-04-20T08:20:08.285Z,441.00
2023-04-20T08:21:08.263Z,441.00
2023-04-20T08:22:08.297Z,442.00
2023-04-20T08:23:08.278Z,445.00
2023-04-20T08:24:08.369Z,445.00
2023-04-20T08:25:08.222Z,444.00
2023-04-20T08:26:08.234Z,443.00
2023-04-20T08:27:08.174Z,445.00
2023-04-20T08:28:11.868Z,443.00
2023-04-20T08:29:08.164Z,441.00
2023-04-20T08:30:08.364Z,441.00
2023-04-20T08:31:08.210Z,440.00
2023-04-20T08:32:08.173Z,438.00
2023-04-20T08:33:08.200Z,438.00
2023-04-20T08:34:08.181Z,441.00
2023-04-20T08:35:08.071Z,441.00
2023-04-20T08:36:08.094Z,443.00
2023-04-20T08:37:08.077Z,443.00
2023-04-20T08:38:08.129Z,441.00
2023-04-20T08:39:08.183Z,439.00
2023-04-20T08:40:08.048Z,438.00
2023-04-20T08:41:07.983Z,438.00
2023-04-20T08:42:08.065Z,437.00
2023-04-20T08:43:07.992Z,437.00
2023-04-20T08:44:08.981Z,436.00
2023-04-20T08:45:07.934Z,437.00
2023-04-20T08:46:08.011Z,437.00
2023-04-20T08:47:08.010Z,441.00
2023-04-20T08:48:08.186Z,442.00
2023-04-20T08:49:07.891Z,442.00
2023-04-20T08:50:07.896Z,438.00
2023-04-20T08:51:07.869Z,438.00
2023-04-20T08:52:07.912Z,437.00
2023-04-20T08:53:07.831Z,434.00
2023-04-20T08:54:07.942Z,434.00
2023-04-20T08:55:07.830Z,432.00
2023-04-20T08:56:07.849Z,432.00
2023-04-20T08:57:07.775Z,434.00
2023-04-20T08:58:07.888Z,432.00
2023-04-20T08:59:07.749Z,436.00
2023-04-20T09:00:07.758Z,437.00
2023-04-20T09:01:07.761Z,437.00
2023-04-20T09:02:07.851Z,439.00
2023-04-20T09:03:07.881Z,439.00
2023-04-20T09:04:08.021Z,439.00
2023-04-20T09:05:07.718Z,439.00
2023-04-20T09:06:07.698Z,437.00
2023-04-20T09:07:07.668Z,438.00
2023-04-20T09:08:07.797Z,437.00
2023-04-20T09:09:07.607Z,437.00
2023-04-20T09:10:07.627Z,439.00
2023-04-20T09:11:07.602Z,437.00
2023-04-20T09:12:08.031Z,439.00
2023-04-20T09:13:07.647Z,439.00
2023-04-20T09:14:08.610Z,440.00
2023-04-20T09:15:07.520Z,439.00
2023-04-20T09:16:07.663Z,438.00
2023-04-20T09:17:07.500Z,441.00
2023-04-20T09:18:07.718Z,442.00
2023-04-20T09:19:09.175Z,441.00
2023-04-20T09:20:08.554Z,441.00
2023-04-20T09:21:07.447Z,441.00
2023-04-20T09:22:07.517Z,439.00
2023-04-20T09:23:07.412Z,437.00
2023-04-20T09:24:07.433Z,437.00
2023-04-20T09:25:07.424Z,435.00
2023-04-20T09:26:07.444Z,435.00
2023-04-20T09:27:07.354Z,437.00
2023-04-20T09:28:07.453Z,435.00
2023-04-20T09:29:07.333Z,434.00
2023-04-20T09:30:07.372Z,429.00
2023-04-20T09:31:07.333Z,429.00
2023-04-20T09:32:07.411Z,432.00
2023-04-20T09:33:07.400Z,433.00
2023-04-20T09:34:07.412Z,433.00
2023-04-20T09:35:07.255Z,433.00
2023-04-20T09:36:07.301Z,433.00
2023-04-20T09:37:07.426Z,434.00
2023-04-20T09:38:09.343Z,433.00
2023-04-20T09:39:07.206Z,431.00
2023-04-20T09:40:07.232Z,433.00
2023-04-20T09:41:07.175Z,434.00
2023-04-20T09:42:07.244Z,436.00
2023-04-20T09:43:07.324Z,440.00
2023-04-20T09:44:07.159Z,436.00
2023-04-20T09:45:07.117Z,440.00
2023-04-20T09:46:07.230Z,438.00
2023-04-20T09:47:07.111Z,437.00
2023-04-20T09:48:07.461Z,437.00
2023-04-20T09:49:07.147Z,436.00
2023-04-20T09:50:22.941Z,435.00
2023-04-20T09:51:08.045Z,435.00
2023-04-20T09:52:07.146Z,435.00
2023-04-20T09:53:07.018Z,433.00
2023-04-20T09:54:07.046Z,435.00
2023-04-20T09:55:07.238Z,435.00
2023-04-20T09:56:07.041Z,434.00
2023-04-20T09:57:06.954Z,435.00
2023-04-20T09:58:07.058Z,435.00
2023-04-20T09:59:06.964Z,432.00
2023-04-20T10:00:06.984Z,431.00
2023-04-20T10:01:06.992Z,432.00
2023-04-20T10:02:07.057Z,430.00
2023-04-20T10:03:07.020Z,427.00
2023-04-20T10:04:06.991Z,430.00
2023-04-20T10:05:06.864Z,432.00
2023-04-20T10:06:06.919Z,433.00
2023-04-20T10:07:06.854Z,433.00
2023-04-20T10:08:07.863Z,437.00
2023-04-20T10:09:06.806Z,437.00
2023-04-20T10:10:06.849Z,437.00
2023-04-20T10:11:06.773Z,437.00
2023-04-20T10:12:06.857Z,440.00
2023-04-20T10:13:06.772Z,440.00
2023-04-20T10:14:06.768Z,440.00
2023-04-20T10:15:06.722Z,437.00
2023-04-20T10:16:06.799Z,436.00
2023-04-20T10:17:07.002Z,437.00
2023-04-20T10:18:06.816Z,435.00
2023-04-20T10:19:08.960Z,434.00
2023-04-20T10:20:06.704Z,435.00
2023-04-20T10:21:06.809Z,435.00
2023-04-20T10:22:06.728Z,436.00
2023-04-20T10:23:06.611Z,436.00
2023-04-20T10:24:07.663Z,432.00
2023-04-20T10:25:06.630Z,434.00
2023-04-20T10:26:06.665Z,434.00
2023-04-20T10:27:06.562Z,434.00
2023-04-20T10:28:06.571Z,432.00
2023-04-20T10:29:06.544Z,432.00
2023-04-20T10:30:06.568Z,434.00
2023-04-20T10:31:06.566Z,437.00
2023-04-20T10:32:06.582Z,438.00
2023-04-20T10:33:06.580Z,435.00
2023-04-20T10:34:06.499Z,435.00
2023-04-20T10:35:06.674Z,434.00
2023-04-20T10:36:06.557Z,440.00
2023-04-20T10:37:06.485Z,435.00
2023-04-20T10:38:06.429Z,440.00
2023-04-20T10:39:06.390Z,438.00
2023-04-20T10:40:07.838Z,439.00
2023-04-20T10:41:06.368Z,438.00
2023-04-20T10:42:06.493Z,438.00
2023-04-20T10:43:06.373Z,438.00
2023-04-20T10:44:06.364Z,432.00
2023-04-20T10:45:06.310Z,431.00
2023-04-20T10:46:06.494Z,431.00
2023-04-20T10:47:06.421Z,429.00
2023-04-20T10:48:06.336Z,430.00
2023-04-20T10:49:06.294Z,431.00
2023-04-20T10:50:06.303Z,430.00
2023-04-20T10:51:06.230Z,431.00
2023-04-20T10:52:06.322Z,430.00
2023-04-20T10:53:06.203Z,428.00
2023-04-20T10:54:06.269Z,430.00
2023-04-20T10:55:06.245Z,433.00
2023-04-20T10:56:06.258Z,432.00
2023-04-20T10:57:06.229Z,432.00
2023-04-20T10:58:06.164Z,431.00
2023-04-20T10:59:06.145Z,426.00
2023-04-20T11:00:06.204Z,426.00
2023-04-20T11:01:06.116Z,432.00
2023-04-20T11:02:06.244Z,431.00
2023-04-20T11:03:06.153Z,431.00
2023-04-20T11:04:06.105Z,434.00
2023-04-20T11:05:06.112Z,433.00
2023-04-20T11:06:06.117Z,427.00
2023-04-20T11:07:06.062Z,430.00
2023-04-20T11:08:06.136Z,431.00
2023-04-20T11:09:05.994Z,436.00
2023-04-20T11:10:06.056Z,434.00
2023-04-20T11:11:05.976Z,431.00
2023-04-20T11:12:06.072Z,430.00
2023-04-20T11:13:05.961Z,435.00
2023-04-20T11:14:05.975Z,439.00
2023-04-20T11:15:05.907Z,433.00
2023-04-20T11:16:06.031Z,435.00
2023-04-20T11:17:05.964Z,432.00
2023-04-20T11:18:06.972Z,428.00
2023-04-20T11:19:05.886Z,430.00
2023-04-20T11:20:05.919Z,429.00
2023-04-20T11:21:06.008Z,427.00
2023-04-20T11:22:05.927Z,429.00
2023-04-20T11:23:05.821Z,430.00
2023-04-20T11:24:05.857Z,432.00
2023-04-20T11:25:05.802Z,431.00
2023-04-20T11:26:05.854Z,428.00
2023-04-20T11:27:05.768Z,429.00
2023-04-20T11:28:05.776Z,431.00
2023-04-20T11:29:05.733Z,433.00
2023-04-20T11:30:05.824Z,432.00
2023-04-20T11:31:05.760Z,433.00
2023-04-20T11:32:06.046Z,433.00
2023-04-20T11:33:05.791Z,432.00
2023-04-20T11:34:07.148Z,430.00
2023-04-20T11:35:07.274Z,429.00
2023-04-20T11:36:05.749Z,431.00
2023-04-20T11:37:05.677Z,429.00
2023-04-20T11:38:05.641Z,426.00
2023-04-20T11:39:05.588Z,432.00
2023-04-20T11:40:05.657Z,433.00
2023-04-20T11:41:05.567Z,428.00
2023-04-20T11:42:05.677Z,428.00
2023-04-20T11:43:05.575Z,433.00
2023-04-20T11:44:05.573Z,431.00
2023-04-20T11:45:05.504Z,429.00
2023-04-20T11:46:05.684Z,427.00
2023-04-20T11:47:05.483Z,427.00
2023-04-20T11:48:05.587Z,428.00
2023-04-20T11:49:05.481Z,427.00
2023-04-20T11:50:05.535Z,434.00
2023-04-20T11:51:05.430Z,429.00
2023-04-20T11:52:06.511Z,430.00
2023-04-20T11:53:05.397Z,425.00
2023-04-20T11:54:05.438Z,433.00
2023-04-20T11:55:05.410Z,434.00
2023-04-20T11:56:05.451Z,432.00
2023-04-20T11:57:05.365Z,433.00
2023-04-20T11:58:05.366Z,429.00
2023-04-20T11:59:05.348Z,434.00
2023-04-20T12:00:05.382Z,435.00
2023-04-20T12:01:05.378Z,432.00
2023-04-20T12:02:05.377Z,429.00
2023-04-20T12:03:05.435Z,428.00
2023-04-20T12:04:05.684Z,429.00
2023-04-20T12:05:05.334Z,430.00
2023-04-20T12:06:05.337Z,429.00
2023-04-20T12:07:05.246Z,427.00
2023-04-20T12:08:05.239Z,427.00
2023-04-20T12:09:05.189Z,424.00
2023-04-20T12:10:05.254Z,427.00
2023-04-20T12:11:05.179Z,426.00
2023-04-20T12:12:05.183Z,425.00
2023-04-20T12:13:05.337Z,425.00
2023-04-20T12:14:05.338Z,427.00
2023-04-20T12:15:05.135Z,425.00
2023-04-20T12:16:05.225Z,423.00
2023-04-20T12:17:05.109Z,425.00
2023-04-20T12:18:05.216Z,422.00
2023-04-20T12:19:05.083Z,421.00
2023-04-20T12:20:05.125Z,425.00
2023-04-20T12:21:05.030Z,427.00
2023-04-20T12:22:05.029Z,427.00
2023-04-20T12:23:05.001Z,427.00
2023-04-20T12:24:05.048Z,424.00
2023-04-20T12:25:04.998Z,426.00
2023-04-20T12:26:05.991Z,427.00
2023-04-20T12:27:04.962Z,425.00
2023-04-20T12:28:05.088Z,423.00
2023-04-20T12:29:05.002Z,422.00
2023-04-20T12:30:05.021Z,421.00
2023-04-20T12:31:05.002Z,425.00
2023-04-20T12:32:04.917Z,424.00